Time;durP1;ratioP1;P1;durP2;ratioP2;P2;SDS_P1;SDS_P2;PMS_P1;PMS_P2;Temp;Humidity;BMP_temperature;BMP_pressure;BME280_temperature;BME280_humidity;BME280_pressure;Samples;Min_cycle;Max_cycle;Signal;HPM_P1;HPM_P2
2021/05/27 00:00:25;;;;;;;1.50;1.37;;;12.60;99.90;;;;;;5093441;28;20485;-76
2021/05/27 00:02:51;;;;;;;1.33;1.23;;;12.50;99.90;;;;;;5090011;28;21006;-76
2021/05/27 00:05:18;;;;;;;1.40;1.30;;;12.40;99.90;;;;;;5090720;28;20443;-76
2021/05/27 00:07:45;;;;;;;1.60;1.40;;;12.30;99.90;;;;;;5093285;28;20446;-76
2021/05/27 00:10:16;;;;;;;2.33;1.50;;;12.20;99.90;;;;;;5093003;28;20442;-76
2021/05/27 00:12:42;;;;;;;1.70;1.60;;;12.20;99.90;;;;;;5092820;28;20496;-76
2021/05/27 00:15:11;;;;;;;1.90;1.80;;;12.10;99.90;;;;;;5093322;28;20457;-76
2021/05/27 00:17:37;;;;;;;3.10;1.60;;;12.00;99.90;;;;;;5093184;28;20447;-76
2021/05/27 00:20:05;;;;;;;2.07;1.97;;;11.90;99.90;;;;;;5093171;28;20958;-76
2021/05/27 00:22:31;;;;;;;1.63;1.53;;;11.90;99.90;;;;;;5092953;28;20837;-76
2021/05/27 00:24:58;;;;;;;3.90;1.90;;;11.90;99.90;;;;;;5093449;28;20450;-76
2021/05/27 00:27:24;;;;;;;2.43;2.23;;;11.80;99.90;;;;;;5093028;28;20446;-76
2021/05/27 00:29:50;;;;;;;1.83;1.73;;;11.70;99.90;;;;;;5093100;28;20458;-75
2021/05/27 00:32:16;;;;;;;2.43;1.90;;;11.70;99.90;;;;;;5091407;28;20470;-76
2021/05/27 00:34:43;;;;;;;3.80;1.57;;;11.70;99.90;;;;;;5092871;28;20988;-75
2021/05/27 00:37:09;;;;;;;1.93;1.40;;;11.60;99.90;;;;;;5092705;28;20508;-76
2021/05/27 00:39:35;;;;;;;1.90;1.77;;;11.60;99.90;;;;;;5092958;28;20445;-77
2021/05/27 00:42:02;;;;;;;2.17;2.00;;;11.60;99.90;;;;;;5092834;28;20447;-76
2021/05/27 00:44:30;;;;;;;1.77;1.67;;;11.60;99.90;;;;;;5092957;28;20477;-76
2021/05/27 00:46:57;;;;;;;1.83;1.73;;;11.50;99.90;;;;;;5078853;28;20449;-76
2021/05/27 00:49:24;;;;;;;6.57;2.20;;;11.50;99.90;;;;;;5092703;28;21016;-76
2021/05/27 00:51:51;;;;;;;2.63;2.13;;;11.40;99.90;;;;;;5092478;28;20474;-76
2021/05/27 00:54:18;;;;;;;1.97;1.77;;;11.40;99.90;;;;;;5092846;28;20485;-76
2021/05/27 00:56:46;;;;;;;3.30;1.70;;;11.40;99.90;;;;;;5092689;28;20477;-76
2021/05/27 00:59:13;;;;;;;2.43;2.23;;;11.30;99.90;;;;;;5092571;28;20528;-76
2021/05/27 01:01:39;;;;;;;2.13;2.03;;;11.20;99.90;;;;;;5092634;28;20474;-76
2021/05/27 01:04:06;;;;;;;1.80;1.70;;;11.20;99.90;;;;;;5092579;28;20488;-77
2021/05/27 01:06:32;;;;;;;2.37;2.17;;;11.20;99.90;;;;;;5092402;28;20450;-76
2021/05/27 01:09:00;;;;;;;2.10;2.00;;;11.20;99.90;;;;;;5092490;28;20962;-76
2021/05/27 01:11:26;;;;;;;2.20;2.10;;;11.10;99.90;;;;;;5092272;28;20564;-76
2021/05/27 01:13:52;;;;;;;2.57;2.30;;;11.10;99.90;;;;;;5092486;28;20478;-76
2021/05/27 01:16:21;;;;;;;2.73;2.50;;;11.10;99.90;;;;;;5095910;28;20484;-77
2021/05/27 01:18:47;;;;;;;2.60;2.40;;;11.00;99.90;;;;;;5096296;28;20560;-76
2021/05/27 01:21:14;;;;;;;2.37;2.27;;;11.00;99.90;;;;;;5096703;28;20473;-76
2021/05/27 01:23:41;;;;;;;2.70;2.50;;;11.00;99.90;;;;;;5096435;28;20470;-76
2021/05/27 01:26:10;;;;;;;2.77;2.57;;;11.00;99.90;;;;;;5096461;28;20478;-77
2021/05/27 01:28:37;;;;;;;3.07;2.83;;;10.90;99.90;;;;;;5079638;28;20880;-76
2021/05/27 01:31:07;;;;;;;2.77;2.57;;;10.90;99.90;;;;;;5096313;28;20474;-76
2021/05/27 01:33:33;;;;;;;3.10;2.90;;;10.90;99.90;;;;;;5096103;28;20443;-76
2021/05/27 01:36:00;;;;;;;2.77;2.57;;;10.80;99.90;;;;;;5096409;28;20504;-76
2021/05/27 01:38:28;;;;;;;3.63;3.10;;;10.80;99.90;;;;;;5096163;28;20450;-76
2021/05/27 01:40:57;;;;;;;2.90;2.70;;;10.80;99.90;;;;;;5095927;28;20526;-76
2021/05/27 01:43:23;;;;;;;3.03;2.80;;;10.70;99.90;;;;;;5095932;28;20541;-76
2021/05/27 01:45:50;;;;;;;2.70;2.50;;;10.70;99.90;;;;;;5085155;28;20489;-76
2021/05/27 01:48:16;;;;;;;6.33;3.20;;;10.70;99.90;;;;;;5093094;28;20478;-76
2021/05/27 01:50:44;;;;;;;3.63;3.37;;;10.70;99.90;;;;;;5095972;28;20567;-76
2021/05/27 01:53:10;;;;;;;2.70;2.60;;;10.70;99.90;;;;;;5095820;28;20541;-76
2021/05/27 01:55:41;;;;;;;3.53;3.23;;;10.70;99.90;;;;;;5095651;28;20525;-76
2021/05/27 01:58:08;;;;;;;4.03;3.60;;;10.70;99.90;;;;;;5095578;28;20442;-76
2021/05/27 02:00:34;;;;;;;3.77;3.47;;;10.60;99.90;;;;;;5095574;28;20488;-76
2021/05/27 02:03:00;;;;;;;3.50;3.30;;;10.60;99.90;;;;;;5095863;28;20438;-76
2021/05/27 02:05:26;;;;;;;4.53;4.23;;;10.60;99.90;;;;;;5095727;28;20470;-76
2021/05/27 02:07:52;;;;;;;3.93;3.63;;;10.60;99.90;;;;;;5095632;28;20486;-76
2021/05/27 02:10:18;;;;;;;4.13;3.33;;;10.70;99.90;;;;;;5095407;28;20599;-76
2021/05/27 02:12:44;;;;;;;3.80;3.50;;;10.60;99.90;;;;;;5095436;28;20985;-76
2021/05/27 02:15:12;;;;;;;3.80;3.50;;;10.70;99.90;;;;;;5095381;28;20483;-75
2021/05/27 02:17:39;;;;;;;3.27;3.07;;;10.70;99.90;;;;;;5095055;28;20957;-75
2021/05/27 02:20:06;;;;;;;4.00;3.63;;;10.60;99.90;;;;;;5095377;28;20446;-77
2021/05/27 02:22:33;;;;;;;3.57;3.30;;;10.60;99.90;;;;;;5095027;28;20887;-77
2021/05/27 02:24:59;;;;;;;3.77;3.47;;;10.50;99.90;;;;;;5095387;28;20450;-77
2021/05/27 02:27:25;;;;;;;5.83;4.30;;;10.50;99.90;;;;;;5094585;28;20847;-79
2021/05/27 02:29:51;;;;;;;4.37;3.97;;;10.50;99.90;;;;;;5095134;28;20442;-77
2021/05/27 02:32:18;;;;;;;5.93;4.17;;;10.50;99.90;;;;;;5094953;28;20882;-77
2021/05/27 02:34:44;;;;;;;4.20;3.90;;;10.50;99.90;;;;;;5095184;28;20977;-77
2021/05/27 02:37:11;;;;;;;4.53;4.13;;;10.50;99.90;;;;;;5094983;28;20479;-77
2021/05/27 02:39:37;;;;;;;4.43;4.00;;;10.50;99.90;;;;;;5094843;28;20533;-77
2021/05/27 02:42:03;;;;;;;5.17;4.77;;;10.60;99.90;;;;;;5094941;28;20936;-77
2021/05/27 02:44:29;;;;;;;4.37;4.10;;;10.60;99.90;;;;;;5094960;28;20453;-77
2021/05/27 02:46:56;;;;;;;5.03;4.73;;;10.70;99.90;;;;;;5081115;28;20478;-77
2021/05/27 02:49:23;;;;;;;5.20;4.67;;;10.70;99.90;;;;;;5092206;28;20904;-78
2021/05/27 02:51:49;;;;;;;4.60;4.30;;;10.80;99.90;;;;;;5093884;28;21000;-76
2021/05/27 02:54:15;;;;;;;9.97;5.13;;;10.80;99.90;;;;;;5093954;28;20541;-77
2021/05/27 02:56:42;;;;;;;4.43;4.13;;;10.80;99.90;;;;;;5092941;28;20967;-76
2021/05/27 02:59:08;;;;;;;4.63;4.33;;;10.90;99.90;;;;;;5093925;28;20502;-77
2021/05/27 03:01:34;;;;;;;4.47;4.17;;;10.90;99.90;;;;;;5094394;28;20474;-76
2021/05/27 03:04:01;;;;;;;5.20;4.70;;;11.00;99.90;;;;;;5094432;28;20485;-76
2021/05/27 03:06:27;;;;;;;5.20;4.70;;;11.00;99.90;;;;;;5094018;28;20446;-77
2021/05/27 03:08:54;;;;;;;5.67;4.10;;;11.10;99.90;;;;;;5092852;28;20530;-76
2021/05/27 03:11:21;;;;;;;4.83;4.53;;;11.10;99.90;;;;;;5093802;28;20505;-77
2021/05/27 03:13:48;;;;;;;6.17;4.70;;;11.20;99.90;;;;;;5094069;28;20447;-76
2021/05/27 03:16:14;;;;;;;5.40;4.90;;;11.20;99.90;;;;;;5093966;28;20478;-76
2021/05/27 03:18:40;;;;;;;5.20;4.70;;;11.30;99.90;;;;;;5093624;28;20443;-75
2021/05/27 03:21:08;;;;;;;4.80;4.40;;;11.30;99.90;;;;;;5090713;28;20482;-75
2021/05/27 03:23:35;;;;;;;4.27;3.97;;;11.40;99.90;;;;;;5091112;28;20537;-76
2021/05/27 03:26:01;;;;;;;4.30;4.00;;;11.40;99.90;;;;;;5090913;28;20478;-76
2021/05/27 03:28:28;;;;;;;4.93;4.40;;;11.50;99.90;;;;;;5093441;28;20992;-75
2021/05/27 03:30:54;;;;;;;4.83;4.17;;;11.50;99.90;;;;;;5090194;28;20552;-76
2021/05/27 03:33:20;;;;;;;4.87;4.27;;;11.50;99.90;;;;;;5093553;28;20848;-76
2021/05/27 03:35:46;;;;;;;5.97;4.67;;;11.60;99.90;;;;;;5093757;28;20860;-76
2021/05/27 03:38:12;;;;;;;5.53;4.53;;;11.60;99.90;;;;;;5092697;28;20556;-76
2021/05/27 03:40:39;;;;;;;4.97;4.60;;;11.60;99.90;;;;;;5093885;28;20478;-76
2021/05/27 03:43:05;;;;;;;5.30;4.90;;;11.70;99.90;;;;;;5093825;28;20893;-76
2021/05/27 03:45:32;;;;;;;5.13;4.60;;;11.80;99.90;;;;;;5085426;28;20479;-76
2021/05/27 03:47:59;;;;;;;5.10;4.70;;;11.80;99.90;;;;;;5088599;28;20443;-76
2021/05/27 03:50:27;;;;;;;4.57;4.17;;;11.90;99.90;;;;;;5093318;28;20518;-77
2021/05/27 03:52:53;;;;;;;5.77;5.20;;;12.00;99.90;;;;;;5093392;28;20926;-76
2021/05/27 03:55:21;;;;;;;5.50;5.07;;;12.00;99.90;;;;;;5093455;28;20968;-76
2021/05/27 03:57:49;;;;;;;5.77;5.27;;;12.10;99.90;;;;;;5093491;28;20465;-77
2021/05/27 04:03:04;;;;;;;7.43;4.03;;;12.20;99.90;;;;;;5093427;28;20837;-76
2021/05/27 04:08:15;;;;;;;4.67;4.30;;;12.30;99.90;;;;;;5093329;28;20503;-77
2021/05/27 04:10:41;;;;;;;5.33;4.77;;;12.30;99.90;;;;;;5093204;28;20474;-76
2021/05/27 04:13:08;;;;;;;5.30;4.90;;;12.30;99.90;;;;;;5093262;28;20486;-76
2021/05/27 04:15:35;;;;;;;5.33;4.90;;;12.30;99.90;;;;;;5092857;28;20583;-77
2021/05/27 04:18:03;;;;;;;4.73;4.43;;;12.30;99.90;;;;;;5093259;28;20474;-77
2021/05/27 04:20:31;;;;;;;5.23;4.83;;;12.30;99.90;;;;;;5093030;28;20479;-76
2021/05/27 04:22:57;;;;;;;5.30;4.90;;;12.40;99.90;;;;;;5092946;28;20471;-76
2021/05/27 04:25:25;;;;;;;4.63;4.33;;;12.40;99.90;;;;;;5093020;28;20466;-76
2021/05/27 04:27:52;;;;;;;5.20;4.80;;;12.40;99.90;;;;;;5092804;28;20546;-76
2021/05/27 04:30:23;;;;;;;5.23;4.70;;;12.40;99.90;;;;;;5091528;28;20538;-76
2021/05/27 04:32:55;;;;;;;5.20;4.80;;;12.50;99.90;;;;;;5093033;28;20454;-76
2021/05/27 04:35:23;;;;;;;5.97;5.30;;;12.50;99.90;;;;;;5093131;28;20447;-76
2021/05/27 04:37:50;;;;;;;5.80;5.40;;;12.60;99.90;;;;;;5092818;28;20485;-76
2021/05/27 04:40:17;;;;;;;4.83;4.40;;;12.60;99.90;;;;;;5092794;28;20965;-76
2021/05/27 04:42:43;;;;;;;5.90;5.40;;;12.60;99.90;;;;;;5092638;28;20470;-76
2021/05/27 04:45:10;;;;;;;6.00;5.50;;;12.60;99.90;;;;;;5087788;28;20470;-76
2021/05/27 04:47:37;;;;;;;5.00;4.70;;;12.60;99.90;;;;;;5084633;28;20830;-76
2021/05/27 04:50:05;;;;;;;5.73;5.13;;;12.60;99.90;;;;;;5092917;28;20478;-76
2021/05/27 04:52:31;;;;;;;5.50;5.13;;;12.70;99.90;;;;;;5092622;28;20836;-76
2021/05/27 04:54:57;;;;;;;5.80;5.40;;;12.70;99.90;;;;;;5092643;28;20971;-76
2021/05/27 04:57:23;;;;;;;9.40;6.07;;;12.70;99.90;;;;;;5092368;28;20865;-76
2021/05/27 04:59:49;;;;;;;11.10;10.00;;;12.80;99.90;;;;;;5092492;28;20481;-76
2021/05/27 05:02:15;;;;;;;6.70;6.10;;;12.80;99.90;;;;;;5092622;28;20478;-76
2021/05/27 05:04:42;;;;;;;6.10;5.60;;;13.00;99.90;;;;;;5092653;28;20481;-76
2021/05/27 05:07:08;;;;;;;5.30;4.60;;;13.20;99.90;;;;;;5092481;28;20475;-76
2021/05/27 05:09:34;;;;;;;5.73;5.10;;;13.40;99.90;;;;;;5092445;28;20482;-78
2021/05/27 05:12:00;;;;;;;4.13;3.83;;;13.60;99.90;;;;;;5092239;28;20506;-76
2021/05/27 05:14:28;;;;;;;5.33;4.83;;;13.70;99.90;;;;;;5092571;28;20525;-76
2021/05/27 05:16:55;;;;;;;4.13;3.83;;;13.70;99.90;;;;;;5092521;28;20485;-76
2021/05/27 05:19:21;;;;;;;5.33;4.83;;;13.90;99.90;;;;;;5092365;28;20441;-76
2021/05/27 05:21:48;;;;;;;5.23;4.83;;;14.20;99.90;;;;;;5092347;28;20450;-76
2021/05/27 05:24:14;;;;;;;4.90;4.50;;;14.40;99.90;;;;;;5092139;28;20477;-76
2021/05/27 05:26:42;;;;;;;4.83;4.40;;;14.50;99.90;;;;;;5092415;28;20479;-76
2021/05/27 05:29:08;;;;;;;4.80;4.40;;;14.60;99.90;;;;;;5092270;28;20499;-76
2021/05/27 05:31:34;;;;;;;5.60;5.20;;;14.80;99.90;;;;;;5092240;28;20517;-77
2021/05/27 05:34:00;;;;;;;5.07;4.57;;;15.00;99.90;;;;;;5092417;28;20450;-76
2021/05/27 05:36:26;;;;;;;4.20;3.90;;;15.20;99.90;;;;;;5092100;28;21087;-77
2021/05/27 05:38:53;;;;;;;4.73;4.20;;;15.20;99.90;;;;;;5092176;28;20537;-77
2021/05/27 05:41:20;;;;;;;4.67;4.37;;;15.20;99.90;;;;;;5092199;28;20537;-77
2021/05/27 05:43:46;;;;;;;5.27;4.50;;;15.20;99.90;;;;;;5092333;28;20439;-77
2021/05/27 05:46:12;;;;;;;4.67;4.27;;;15.30;99.90;;;;;;5078703;28;20490;-76
2021/05/27 05:48:38;;;;;;;4.63;4.23;;;15.50;99.90;;;;;;5092032;28;20848;-76
2021/05/27 05:51:07;;;;;;;6.47;5.07;;;15.60;99.90;;;;;;5092100;28;20502;-77
2021/05/27 05:53:34;;;;;;;5.40;4.40;;;15.70;99.90;;;;;;5091763;28;20503;-76
2021/05/27 05:56:01;;;;;;;5.83;5.40;;;15.80;99.90;;;;;;5092168;28;20479;-77
2021/05/27 05:58:27;;;;;;;4.27;3.90;;;15.80;99.90;;;;;;5091840;28;20558;-76
2021/05/27 06:00:53;;;;;;;4.80;4.40;;;15.90;99.90;;;;;;5093185;28;20923;-76
2021/05/27 06:03:19;;;;;;;5.27;3.97;;;16.00;99.90;;;;;;5095527;28;20482;-77
2021/05/27 06:05:46;;;;;;;3.57;3.30;;;16.10;99.90;;;;;;5095713;28;20537;-76
2021/05/27 06:08:12;;;;;;;5.07;4.33;;;16.10;99.90;;;;;;5095350;28;20446;-77
2021/05/27 06:10:38;;;;;;;3.40;3.10;;;16.20;99.90;;;;;;5095632;28;20533;-76
2021/05/27 06:13:05;;;;;;;4.20;3.90;;;16.30;99.90;;;;;;5095494;28;20454;-77
2021/05/27 06:15:33;;;;;;;3.70;3.40;;;16.40;99.90;;;;;;5095543;28;20539;-75
2021/05/27 06:18:00;;;;;;;3.57;3.37;;;16.40;99.90;;;;;;5095282;28;20453;-76
2021/05/27 06:20:28;;;;;;;3.50;3.30;;;16.50;99.90;;;;;;5095414;28;20458;-76
2021/05/27 06:22:55;;;;;;;3.20;2.93;;;16.50;99.90;;;;;;5095159;28;20537;-77
2021/05/27 06:25:23;;;;;;;4.67;3.23;;;16.40;99.90;;;;;;5095286;28;20486;-76
2021/05/27 06:27:49;;;;;;;4.03;3.20;;;16.50;99.90;;;;;;5095099;28;20797;-76
2021/05/27 06:30:17;;;;;;;3.33;3.13;;;16.60;99.90;;;;;;5095219;28;20505;-77
2021/05/27 06:32:43;;;;;;;3.13;2.93;;;16.70;99.90;;;;;;5094965;28;20508;-77
2021/05/27 06:35:12;;;;;;;3.47;3.17;;;16.90;99.90;;;;;;5095036;28;20470;-77
2021/05/27 06:37:39;;;;;;;3.13;2.83;;;17.00;99.90;;;;;;5094992;28;20480;-77
2021/05/27 06:40:07;;;;;;;3.20;2.97;;;17.00;99.90;;;;;;5095255;28;20587;-76
2021/05/27 06:42:33;;;;;;;2.90;2.77;;;16.90;99.90;;;;;;5094864;28;20537;-76
2021/05/27 06:45:00;;;;;;;4.50;3.43;;;16.70;99.90;;;;;;5091299;28;20531;-76
2021/05/27 06:47:27;;;;;;;3.90;3.53;;;16.50;99.90;;;;;;5085014;28;20466;-77
2021/05/27 06:49:53;;;;;;;4.07;3.53;;;16.30;99.90;;;;;;5094768;28;20454;-76
2021/05/27 06:52:19;;;;;;;5.10;3.50;;;16.10;99.90;;;;;;5094600;28;20513;-77
2021/05/27 06:54:45;;;;;;;3.40;3.17;;;15.90;99.90;;;;;;5094765;28;20533;-77
2021/05/27 06:57:11;;;;;;;3.37;3.17;;;15.70;99.90;;;;;;5094648;28;20477;-77
2021/05/27 06:59:37;;;;;;;4.97;3.00;;;15.60;99.90;;;;;;5094413;28;20509;-76
2021/05/27 07:02:04;;;;;;;3.70;3.13;;;15.60;99.90;;;;;;5094573;28;20493;-77
2021/05/27 07:04:31;;;;;;;3.53;3.20;;;15.50;99.90;;;;;;5094452;28;20533;-77
2021/05/27 07:06:57;;;;;;;3.33;3.13;;;15.40;99.90;;;;;;5094642;28;20443;-77
2021/05/27 07:09:23;;;;;;;3.57;3.37;;;15.30;99.90;;;;;;5094511;28;20477;-76
2021/05/27 07:11:49;;;;;;;2.97;2.70;;;15.30;99.90;;;;;;5093753;28;20833;-76
2021/05/27 07:14:15;;;;;;;3.17;2.87;;;15.40;99.90;;;;;;5093819;28;20541;-76
2021/05/27 07:16:41;;;;;;;3.40;3.10;;;15.50;99.90;;;;;;5094278;28;20450;-77
2021/05/27 07:19:07;;;;;;;3.20;3.00;;;15.50;99.90;;;;;;5094348;28;20470;-76
2021/05/27 07:21:34;;;;;;;2.93;2.63;;;15.50;99.90;;;;;;5094333;28;20487;-76
2021/05/27 07:24:00;;;;;;;2.83;2.50;;;15.50;99.90;;;;;;5094106;28;20485;-76
2021/05/27 07:26:27;;;;;;;4.30;2.77;;;15.50;99.90;;;;;;5094048;28;20511;-76
2021/05/27 07:28:53;;;;;;;3.00;2.80;;;15.40;99.90;;;;;;5093696;28;20944;-76
2021/05/27 07:31:19;;;;;;;2.97;2.77;;;15.30;99.90;;;;;;5093796;28;20521;-76
2021/05/27 07:33:45;;;;;;;2.67;2.50;;;15.20;99.90;;;;;;5094192;28;20474;-76
2021/05/27 07:36:11;;;;;;;2.63;2.43;;;15.20;99.90;;;;;;5093927;28;20486;-76
2021/05/27 07:38:38;;;;;;;2.60;2.40;;;15.20;99.90;;;;;;5093823;28;20474;-76
2021/05/27 07:41:06;;;;;;;2.73;2.20;;;15.20;99.90;;;;;;5093856;28;20546;-76
2021/05/27 07:43:32;;;;;;;3.20;2.37;;;15.30;99.90;;;;;;5093539;28;20501;-76
2021/05/27 07:45:58;;;;;;;2.37;2.17;;;15.50;99.90;;;;;;5081747;28;20452;-77
2021/05/27 07:48:24;;;;;;;2.40;2.20;;;15.70;99.90;;;;;;5091991;28;20508;-77
2021/05/27 07:50:50;;;;;;;6.27;2.50;;;16.00;99.90;;;;;;5093753;28;20878;-76
2021/05/27 07:53:19;;;;;;;3.07;2.23;;;16.50;99.90;;;;;;5093524;28;20485;-77
2021/05/27 07:55:46;;;;;;;9.83;3.73;;;16.70;99.90;;;;;;5093611;28;20791;-76
2021/05/27 07:58:13;;;;;;;5.90;2.87;;;16.80;99.90;;;;;;5092996;28;21132;-76
2021/05/27 08:00:39;;;;;;;12.00;3.90;;;16.60;99.90;;;;;;5093385;28;20453;-76
2021/05/27 08:03:05;;;;;;;4.23;2.97;;;16.40;99.90;;;;;;5093544;28;20478;-77
2021/05/27 08:05:32;;;;;;;3.87;2.77;;;16.10;99.90;;;;;;5093417;28;20534;-76
2021/05/27 08:07:58;;;;;;;3.37;3.00;;;15.90;99.90;;;;;;5093298;28;20478;-76
2021/05/27 08:10:24;;;;;;;7.80;3.50;;;15.90;99.90;;;;;;5093227;28;20450;-77
2021/05/27 08:12:52;;;;;;;5.40;4.10;;;16.10;99.90;;;;;;5093121;28;20513;-77
2021/05/27 08:15:18;;;;;;;7.63;3.90;;;16.20;99.90;;;;;;5092763;28;20545;-77
2021/05/27 08:17:44;;;;;;;4.53;2.90;;;16.30;99.90;;;;;;5093370;28;20967;-77
2021/05/27 08:20:10;;;;;;;4.77;2.87;;;16.40;99.90;;;;;;5093203;28;20485;-77
2021/05/27 08:22:37;;;;;;;13.27;3.70;;;16.30;99.90;;;;;;5093090;28;20486;-76
2021/05/27 08:25:04;;;;;;;13.40;4.90;;;16.20;99.90;;;;;;5092643;28;20563;-77
2021/05/27 08:27:30;;;;;;;6.40;3.93;;;16.10;99.90;;;;;;5092878;28;20857;-77
2021/05/27 08:29:57;;;;;;;6.57;3.07;;;16.10;99.90;;;;;;5092821;28;20462;-77
2021/05/27 08:32:23;;;;;;;11.57;3.87;;;16.10;99.90;;;;;;5092541;28;20510;-76
2021/05/27 08:34:50;;;;;;;7.70;3.60;;;16.00;99.90;;;;;;5092756;28;20504;-76
2021/05/27 08:37:16;;;;;;;7.13;3.10;;;15.90;99.90;;;;;;5092414;28;20443;-77
2021/05/27 08:39:42;;;;;;;2.63;2.43;;;16.10;99.90;;;;;;5092407;28;20537;-76
2021/05/27 08:42:08;;;;;;;2.77;2.13;;;16.50;99.90;;;;;;5092471;28;20952;-77
2021/05/27 08:44:36;;;;;;;2.53;2.33;;;17.10;99.90;;;;;;5091835;28;20442;-76
2021/05/27 08:47:03;;;;;;;3.17;2.70;;;17.60;99.90;;;;;;5090634;28;20450;-76
2021/05/27 08:49:30;;;;;;;2.20;2.10;;;18.10;99.90;;;;;;5092131;28;20866;-76
2021/05/27 08:51:56;;;;;;;1.90;1.80;;;18.40;99.90;;;;;;5089744;28;20474;-77
2021/05/27 08:54:22;;;;;;;2.13;2.03;;;18.30;99.90;;;;;;5091123;28;20478;-82
2021/05/27 08:56:48;;;;;;;5.70;2.50;;;18.10;99.90;;;;;;5080925;28;20528;-81
2021/05/27 08:59:14;;;;;;;7.70;2.20;;;17.70;99.90;;;;;;5092188;28;21008;-81
2021/05/27 09:01:59;;;;;;;20.30;5.00;;;17.30;99.90;;;;;;5092831;28;20450;-81
2021/05/27 09:04:25;;;;;;;18.03;4.57;;;17.00;99.90;;;;;;5092584;28;20531;-81
2021/05/27 09:06:51;;;;;;;3.43;2.17;;;16.80;99.90;;;;;;5092444;28;20972;-81
2021/05/27 09:09:18;;;;;;;4.53;3.40;;;16.70;99.90;;;;;;5092360;28;20900;-81
2021/05/27 09:11:46;;;;;;;5.70;2.80;;;16.60;99.90;;;;;;5092670;28;20529;-81
2021/05/27 09:14:12;;;;;;;5.53;2.90;;;16.60;99.90;;;;;;5092241;28;20511;-81
2021/05/27 09:16:39;;;;;;;9.43;3.97;;;16.50;99.90;;;;;;5092769;28;20469;-81
2021/05/27 09:19:17;;;;;;;3.80;2.03;;;16.50;99.90;;;;;;5092363;28;20442;-80
2021/05/27 09:21:44;;;;;;;6.23;3.20;;;16.40;99.90;;;;;;5092437;28;20450;-83
2021/05/27 09:24:10;;;;;;;7.33;4.30;;;16.20;99.90;;;;;;5092045;28;20537;-82
2021/05/27 09:26:50;;;;;;;3.87;1.90;;;16.30;99.90;;;;;;5092199;28;20533;-80
2021/05/27 09:29:16;;;;;;;8.33;2.70;;;16.50;99.90;;;;;;5092348;28;20442;-80
2021/05/27 09:31:56;;;;;;;9.90;4.20;;;16.70;99.90;;;;;;5092299;28;20510;-80
2021/05/27 09:34:39;;;;;;;4.80;2.73;;;17.10;99.90;;;;;;5092012;28;20447;-81
2021/05/27 09:37:06;;;;;;;2.30;1.47;;;17.60;99.90;;;;;;5095541;28;20503;-81
2021/05/27 09:39:40;;;;;;;3.50;2.70;;;18.00;99.90;;;;;;5096103;28;20545;-81
2021/05/27 09:42:09;;;;;;;6.73;2.73;;;18.30;99.90;;;;;;5096065;28;20992;-81
2021/05/27 09:44:35;;;;;;;7.07;2.03;;;18.60;99.90;;;;;;5078760;28;20525;-81
2021/05/27 09:47:01;;;;;;;3.70;1.73;;;19.10;99.90;;;;;;5082913;28;20528;-81
2021/05/27 09:49:28;;;;;;;2.10;1.80;;;19.50;99.90;;;;;;5096058;28;20560;-81
2021/05/27 09:51:56;;;;;;;1.77;1.60;;;19.80;99.90;;;;;;5095916;28;20478;-80
2021/05/27 09:54:23;;;;;;;1.80;1.23;;;19.70;99.90;;;;;;5095676;28;20447;-80
2021/05/27 09:56:49;;;;;;;3.60;1.97;;;19.50;99.90;;;;;;5095774;28;20492;-81
2021/05/27 09:59:17;;;;;;;1.40;1.20;;;19.10;99.90;;;;;;5095475;28;20860;-81
2021/05/27 10:02:12;;;;;;;1.10;1.00;;;18.80;99.90;;;;;;5095894;28;20559;-80
2021/05/27 10:05:03;;;;;;;1.10;0.93;;;18.80;99.90;;;;;;5079279;28;20478;-80
2021/05/27 10:07:40;;;;;;;1.30;1.20;;;18.80;99.90;;;;;;5095233;28;20449;-81
2021/05/27 10:10:10;;;;;;;1.40;1.20;;;19.00;99.90;;;;;;5095535;28;20445;-81
2021/05/27 10:12:41;;;;;;;1.50;1.27;;;19.10;99.90;;;;;;5078988;28;20474;-81
2021/05/27 10:15:09;;;;;;;1.40;1.20;;;19.20;99.90;;;;;;5095400;28;20525;-80
2021/05/27 10:17:40;;;;;;;1.27;1.17;;;19.50;99.90;;;;;;5095244;28;20530;-81
2021/05/27 10:20:09;;;;;;;1.23;1.10;;;19.60;99.90;;;;;;5095191;28;20439;-81
2021/05/27 10:22:35;;;;;;;6.30;1.50;;;19.70;99.90;;;;;;5078810;28;20467;-80
2021/05/27 10:25:05;;;;;;;1.40;1.20;;;19.80;99.90;;;;;;5095216;28;20533;-81
2021/05/27 10:27:32;;;;;;;1.93;1.00;;;19.70;99.90;;;;;;5094831;28;20696;-81
2021/05/27 10:29:59;;;;;;;1.77;1.30;;;19.60;99.90;;;;;;5094723;28;20539;-81
2021/05/27 10:32:26;;;;;;;3.73;1.30;;;19.60;99.90;;;;;;5094062;28;20502;-81
2021/05/27 10:34:53;;;;;;;4.13;1.30;;;19.70;99.90;;;;;;5084054;28;20813;-81
2021/05/27 10:37:46;;;;;;;1.03;0.93;;;20.00;99.90;;;;;;5095014;28;20485;-81
2021/05/27 10:40:37;;;;;;;1.43;1.03;;;20.50;99.90;;;;;;5094734;28;20438;-81
2021/05/27 10:43:25;;;;;;;1.07;0.80;;;20.90;99.90;;;;;;5094807;28;21003;-81
2021/05/27 10:46:06;;;;;;;1.23;1.00;;;21.10;99.90;;;;;;5089804;28;20531;-81
2021/05/27 10:48:38;;;;;;;1.00;0.90;;;21.40;99.90;;;;;;5094657;28;20438;-81
2021/05/27 10:51:09;;;;;;;0.90;0.87;;;21.60;99.90;;;;;;5094605;28;20439;-81
2021/05/27 10:53:55;;;;;;;1.47;0.80;;;21.80;99.90;;;;;;5091857;28;20443;-81
2021/05/27 10:56:38;;;;;;;1.57;1.10;;;22.10;99.90;;;;;;5088942;28;20451;-81
2021/05/27 10:59:05;;;;;;;1.70;1.03;;;22.00;99.90;;;;;;5078170;28;20490;-81
2021/05/27 11:01:58;;;;;;;1.70;1.17;;;21.70;99.90;;;;;;5094335;28;20538;-82
2021/05/27 11:04:33;;;;;;;1.97;0.80;;;21.40;99.90;;;;;;5094659;28;20491;-81
2021/05/27 11:07:22;;;;;;;1.77;0.80;;;21.30;99.90;;;;;;5094440;28;20446;-81
2021/05/27 11:09:50;;;;;;;0.80;0.80;;;21.40;99.90;;;;;;5094412;28;20447;-81
2021/05/27 11:12:20;;;;;;;1.43;0.93;;;21.30;99.90;;;;;;5094011;28;20475;-81
2021/05/27 11:15:10;;;;;;;1.73;0.90;;;21.10;99.90;;;;;;5094391;28;20447;-81
2021/05/27 11:17:37;;;;;;;0.80;0.77;;;20.70;99.90;;;;;;5094421;28;20474;-81
2021/05/27 11:20:06;;;;;;;1.87;1.20;;;20.50;99.90;;;;;;5094045;28;20862;-81
2021/05/27 11:22:47;;;;;;;0.97;0.97;;;20.50;99.90;;;;;;5094166;28;20488;-80
2021/05/27 11:25:24;;;;;;;5.33;1.00;;;20.60;99.90;;;;;;5079130;28;20459;-80
2021/05/27 11:27:53;;;;;;;1.50;0.90;;;20.60;99.90;;;;;;5093898;28;20977;-80
2021/05/27 11:30:21;;;;;;;3.63;0.80;;;20.70;99.90;;;;;;5093899;28;20445;-80
2021/05/27 11:32:49;;;;;;;1.07;0.80;;;20.90;99.90;;;;;;5093948;28;21050;-81
2021/05/27 11:35:16;;;;;;;1.10;0.93;;;21.00;99.90;;;;;;5093797;28;20443;-81
2021/05/27 11:37:44;;;;;;;0.83;0.77;;;21.10;99.90;;;;;;5091042;28;20834;-80
2021/05/27 11:40:12;;;;;;;1.10;1.00;;;21.30;99.90;;;;;;5093831;28;20447;-81
2021/05/27 11:42:39;;;;;;;0.80;0.80;;;21.30;99.90;;;;;;5093585;28;20447;-80
2021/05/27 11:45:07;;;;;;;10.37;1.17;;;21.40;99.90;;;;;;5093599;28;20450;-80
2021/05/27 11:47:35;;;;;;;0.90;0.80;;;21.50;99.90;;;;;;5093561;28;20529;-80
2021/05/27 11:50:03;;;;;;;0.80;0.70;;;21.60;99.90;;;;;;5093773;28;20450;-80
2021/05/27 11:52:29;;;;;;;0.87;0.60;;;21.70;99.90;;;;;;5093289;28;21060;-81
2021/05/27 11:54:56;;;;;;;1.83;0.90;;;21.40;99.90;;;;;;5093163;28;20442;-81
2021/05/27 11:57:22;;;;;;;1.13;0.90;;;21.20;99.90;;;;;;5092698;28;20458;-81
2021/05/27 11:59:59;;;;;;;1.03;0.90;;;20.90;99.90;;;;;;5092253;28;20470;-81
2021/05/27 12:05:24;;;;;;;1.13;0.70;;;20.90;99.90;;;;;;5090078;27;20544;-78
2021/05/27 12:08:01;;;;;;;2.13;0.93;;;20.40;99.90;;;;;;5089810;28;20942;-78
2021/05/27 12:10:28;;;;;;;1.53;1.27;;;20.00;99.90;;;;;;5089972;28;20527;-78
2021/05/27 12:12:55;;;;;;;3.90;1.00;;;19.70;99.90;;;;;;5089936;28;20537;-78
2021/05/27 12:15:22;;;;;;;6.03;0.90;;;19.30;99.90;;;;;;5089814;28;20485;-78
2021/05/27 12:17:49;;;;;;;2.50;1.00;;;18.70;99.90;;;;;;5089314;28;20810;-78
2021/05/27 12:20:19;;;;;;;1.73;0.70;;;17.90;99.90;;;;;;5089766;28;20446;-79
2021/05/27 12:22:52;;;;;;;1.77;1.30;;;17.30;99.90;;;;;;5089522;28;20447;-78
2021/05/27 12:25:21;;;;;;;1.10;1.00;;;16.70;99.90;;;;;;5089582;28;20451;-78
2021/05/27 12:27:50;;;;;;;1.10;1.00;;;16.30;99.90;;;;;;5089659;28;20850;-78
2021/05/27 12:30:25;;;;;;;2.53;1.10;;;16.00;99.90;;;;;;5089774;28;20443;-80
2021/05/27 12:32:52;;;;;;;1.90;1.07;;;16.00;99.90;;;;;;5089575;28;20474;-78
2021/05/27 12:35:25;;;;;;;2.20;1.20;;;16.20;99.90;;;;;;5089492;28;20496;-79
2021/05/27 12:37:55;;;;;;;1.20;1.10;;;16.50;99.90;;;;;;5089342;28;20447;-81
2021/05/27 12:40:25;;;;;;;1.00;0.90;;;16.70;99.90;;;;;;5089520;28;20443;-81
2021/05/27 12:42:52;;;;;;;1.87;1.20;;;16.80;99.90;;;;;;5089284;28;20833;-80
2021/05/27 12:45:30;;;;;;;1.30;1.00;;;16.80;99.90;;;;;;5089267;28;20541;-81
2021/05/27 12:48:12;;;;;;;1.20;1.00;;;16.70;99.90;;;;;;5089015;28;20522;-81
2021/05/27 12:50:41;;;;;;;16.30;14.70;;;16.50;99.90;;;;;;5089292;28;20434;-81
2021/05/27 12:53:22;;;;;;;1.60;1.50;;;16.30;99.90;;;;;;5087680;28;20818;-81
2021/05/27 12:55:49;;;;;;;0.90;0.90;;;16.30;99.90;;;;;;5087898;28;20438;-81
2021/05/27 12:58:25;;;;;;;3.43;2.77;;;16.30;99.90;;;;;;5088218;28;20504;-81